createdAt,value
2022-12-23T04:18:21.340Z,7.65
2022-12-23T04:20:47.917Z,7.95
2022-12-23T04:23:14.440Z,8.31
2022-12-23T04:25:40.943Z,7.98
2022-12-23T04:28:07.499Z,7.83
2022-12-23T04:30:35.020Z,7.97
2022-12-23T04:33:02.299Z,8.20
2022-12-23T04:35:29.267Z,8.21
2022-12-23T04:37:55.756Z,8.00
2022-12-23T04:40:22.390Z,8.28
2022-12-23T04:42:49.947Z,7.93
2022-12-23T04:45:16.527Z,8.29
2022-12-23T04:47:43.032Z,8.25
2022-12-23T04:50:14.575Z,8.15
2022-12-23T04:52:41.702Z,7.95
2022-12-23T04:55:08.665Z,7.97
2022-12-23T04:57:35.204Z,7.80
2022-12-23T05:00:01.747Z,7.94
2022-12-23T05:02:28.661Z,7.80
2022-12-23T05:04:55.317Z,8.06
2022-12-23T05:07:21.821Z,8.06
2022-12-23T05:09:48.343Z,8.20
2022-12-23T05:12:14.905Z,8.26
2022-12-23T05:14:41.418Z,8.52
2022-12-23T05:17:08.251Z,8.47
2022-12-23T05:19:34.884Z,8.48
2022-12-23T05:22:21.640Z,8.47
2022-12-23T05:24:48.504Z,8.37
2022-12-23T05:27:15.116Z,8.44
2022-12-23T05:29:41.602Z,8.44
2022-12-23T05:32:08.258Z,8.40
2022-12-23T05:34:34.824Z,8.36
2022-12-23T05:37:01.317Z,8.23
2022-12-23T05:39:27.774Z,8.35
2022-12-23T05:41:54.277Z,8.39
2022-12-23T05:44:20.755Z,8.42
2022-12-23T05:46:47.263Z,8.44
2022-12-23T05:49:13.854Z,8.33
2022-12-23T05:51:40.349Z,8.21
2022-12-23T05:54:06.894Z,8.24
2022-12-23T05:56:33.354Z,8.19
2022-12-23T05:58:59.867Z,8.30
2022-12-23T06:01:26.422Z,8.27
2022-12-23T06:03:53.046Z,8.11
2022-12-23T06:06:19.643Z,8.43
2022-12-23T06:08:46.179Z,8.44
2022-12-23T06:11:13.117Z,8.46
2022-12-23T06:13:39.742Z,8.43
2022-12-23T06:16:06.630Z,8.38
2022-12-23T06:18:33.274Z,8.41
2022-12-23T06:20:59.830Z,8.60
2022-12-23T06:23:26.319Z,8.59
2022-12-23T06:26:02.044Z,8.56
2022-12-23T06:28:29.275Z,8.73
2022-12-23T06:30:57.196Z,8.60
2022-12-23T06:33:24.767Z,8.60
2022-12-23T06:35:51.278Z,8.62
2022-12-23T06:38:17.826Z,8.68
2022-12-23T06:40:44.419Z,8.62
2022-12-23T06:43:13.299Z,8.57
2022-12-23T06:45:40.232Z,8.58
2022-12-23T06:48:07.236Z,8.50
2022-12-23T06:50:33.738Z,8.37
2022-12-23T06:53:00.266Z,8.50
2022-12-23T06:55:26.839Z,8.56
2022-12-23T06:57:53.356Z,8.68
2022-12-23T07:00:20.223Z,8.73
2022-12-23T07:02:46.870Z,8.76
2022-12-23T07:05:13.599Z,8.75
2022-12-23T07:07:40.066Z,8.82
2022-12-23T07:10:07.703Z,8.70
2022-12-23T07:12:34.196Z,8.78
2022-12-23T07:15:00.746Z,8.71
2022-12-23T07:17:27.749Z,8.80
2022-12-23T07:19:54.270Z,8.80
2022-12-23T07:22:21.235Z,8.93
2022-12-23T07:24:47.754Z,8.95
2022-12-23T07:27:14.424Z,8.84
2022-12-23T07:29:40.886Z,8.66
2022-12-23T07:32:07.567Z,8.81
2022-12-23T07:34:34.378Z,8.91
2022-12-23T07:37:00.935Z,8.73
2022-12-23T07:39:27.798Z,8.77
2022-12-23T07:42:16.601Z,8.89
2022-12-23T07:44:40.885Z,9.03
2022-12-23T07:47:07.376Z,8.87
2022-12-23T07:49:34.123Z,8.93
2022-12-23T07:52:00.679Z,8.71
2022-12-23T07:54:27.263Z,9.04
2022-12-23T07:56:56.036Z,9.10
2022-12-23T07:59:26.534Z,9.10
2022-12-23T08:01:53.230Z,9.26
2022-12-23T08:04:19.792Z,9.30
2022-12-23T08:06:46.348Z,9.38
2022-12-23T08:09:13.040Z,9.41
2022-12-23T08:11:39.583Z,9.46
2022-12-23T08:14:06.973Z,9.52
2022-12-23T08:16:37.831Z,9.62
2022-12-23T08:19:08.118Z,9.60
2022-12-23T08:21:34.654Z,9.80
2022-12-23T08:24:01.171Z,9.87
2022-12-23T08:26:27.803Z,9.89
2022-12-23T08:28:54.401Z,10.00
2022-12-23T08:31:27.395Z,10.12
2022-12-23T08:33:56.954Z,10.49
2022-12-23T08:36:41.827Z,10.71
2022-12-23T08:39:11.476Z,10.51
2022-12-23T08:41:41.814Z,10.25
2022-12-23T08:44:09.159Z,10.20
2022-12-23T08:46:36.725Z,10.34
2022-12-23T08:49:05.003Z,10.35
2022-12-23T08:51:32.157Z,10.25
2022-12-23T08:54:01.305Z,10.23
2022-12-23T08:56:34.211Z,10.10
2022-12-23T08:59:01.610Z,10.10
2022-12-23T09:01:32.516Z,10.17
2022-12-23T09:04:02.463Z,10.00
2022-12-23T09:06:33.623Z,10.20
2022-12-23T09:09:00.274Z,10.15
2022-12-23T09:11:29.218Z,10.27
2022-12-23T09:13:58.140Z,10.35
2022-12-23T09:16:25.029Z,10.86
2022-12-23T09:18:51.703Z,11.11
2022-12-23T09:21:21.022Z,11.36
2022-12-23T09:23:48.073Z,11.65
2022-12-23T09:26:20.654Z,11.58
2022-12-23T09:28:47.721Z,11.58
2022-12-23T09:31:14.751Z,11.62
2022-12-23T09:33:42.010Z,11.79
2022-12-23T09:36:08.894Z,11.59
2022-12-23T09:38:36.134Z,11.40
2022-12-23T09:41:42.754Z,11.05
2022-12-23T09:44:25.291Z,10.95
2022-12-23T09:46:56.749Z,10.90
2022-12-23T09:49:24.066Z,10.94
2022-12-23T09:51:55.758Z,10.00
2022-12-23T09:54:25.801Z,10.25
2022-12-23T09:57:03.360Z,9.87
2022-12-23T09:59:42.065Z,9.36
2022-12-23T10:02:40.129Z,9.24
2022-12-23T10:05:22.168Z,9.49
2022-12-23T10:08:14.576Z,9.24
2022-12-23T10:10:44.583Z,10.15
2022-12-23T10:13:26.636Z,10.10
2022-12-23T10:15:56.130Z,10.27
2022-12-23T10:18:45.992Z,10.35
2022-12-23T10:21:20.581Z,10.28
2022-12-23T10:23:52.421Z,10.39
2022-12-23T10:26:25.746Z,10.59
2022-12-23T10:29:20.305Z,10.85
2022-12-23T10:32:14.066Z,10.89
2022-12-23T10:35:00.932Z,10.64
2022-12-23T10:37:57.429Z,10.43
2022-12-23T10:40:34.083Z,10.71
2022-12-23T10:43:18.541Z,10.84
2022-12-23T10:46:06.987Z,10.41
2022-12-23T10:48:58.314Z,10.31
2022-12-23T10:51:43.607Z,10.45
2022-12-23T10:54:15.581Z,10.62
2022-12-23T10:56:42.930Z,10.51
2022-12-23T10:59:14.205Z,10.74
2022-12-23T11:01:44.078Z,10.77
2022-12-23T11:04:19.479Z,10.91
2022-12-23T11:07:10.608Z,11.12
2022-12-23T11:09:40.587Z,11.19
2022-12-23T11:12:10.993Z,11.12
2022-12-23T11:14:50.819Z,11.02
2022-12-23T11:17:33.223Z,10.82
2022-12-23T11:20:17.189Z,11.00
2022-12-23T11:22:51.213Z,11.05
2022-12-23T11:25:28.437Z,11.34
2022-12-23T11:28:00.204Z,11.46
2022-12-23T11:30:28.866Z,11.46
2022-12-23T11:32:56.067Z,11.43
2022-12-23T11:35:29.270Z,11.20
2022-12-23T11:37:58.580Z,11.18
2022-12-23T11:40:25.022Z,11.15
2022-12-23T11:42:59.382Z,11.10
2022-12-23T11:45:29.750Z,11.09
2022-12-23T11:47:56.531Z,11.09
2022-12-23T11:50:30.681Z,11.27
2022-12-23T11:53:23.761Z,11.13
2022-12-23T11:56:04.975Z,11.13
2022-12-23T11:58:39.919Z,11.14
2022-12-23T12:01:20.615Z,11.09
2022-12-23T12:03:55.445Z,11.26
2022-12-23T12:06:22.986Z,11.19
2022-12-23T12:08:51.451Z,11.25
2022-12-23T12:11:21.371Z,11.17
2022-12-23T12:13:50.316Z,11.19
2022-12-23T12:16:41.615Z,10.90
2022-12-23T12:19:19.190Z,11.03
2022-12-23T12:21:47.383Z,10.87
2022-12-23T12:24:25.064Z,10.69
2022-12-23T12:26:57.473Z,10.62
2022-12-23T12:29:30.219Z,10.75
2022-12-23T12:31:59.231Z,10.39
2022-12-23T12:34:35.363Z,10.38
2022-12-23T12:37:13.247Z,10.77
2022-12-23T12:40:00.912Z,10.61
2022-12-23T12:43:14.314Z,10.48
2022-12-23T12:45:50.113Z,10.50
2022-12-23T12:48:22.390Z,10.93
2022-12-23T12:50:56.367Z,11.06
2022-12-23T12:53:23.949Z,10.99
2022-12-23T12:55:56.012Z,10.95
2022-12-23T12:58:24.281Z,10.70
2022-12-23T13:01:00.016Z,10.78
2022-12-23T13:03:38.782Z,10.73
2022-12-23T13:06:16.179Z,10.71
2022-12-23T13:09:00.646Z,10.49
2022-12-23T13:11:48.140Z,10.51
2022-12-23T13:14:50.771Z,10.53
2022-12-23T13:17:35.043Z,10.58
2022-12-23T13:20:15.929Z,10.52
2022-12-23T13:22:45.736Z,10.34
2022-12-23T13:25:16.122Z,10.30
2022-12-23T13:27:57.125Z,9.94
2022-12-23T13:30:28.056Z,9.86
2022-12-23T13:32:54.526Z,9.98
2022-12-23T13:35:30.262Z,10.11
2022-12-23T13:38:20.081Z,9.80
2022-12-23T13:40:49.683Z,9.83
2022-12-23T13:43:20.392Z,9.78
2022-12-23T13:45:48.863Z,9.75
2022-12-23T13:48:24.793Z,9.87
2022-12-23T13:51:13.139Z,9.94
2022-12-23T13:53:56.920Z,9.90
2022-12-23T13:56:38.785Z,10.06
2022-12-23T13:59:10.181Z,9.83
2022-12-23T14:01:45.797Z,9.80
2022-12-23T14:04:35.614Z,9.84
2022-12-23T14:07:19.009Z,9.82
2022-12-23T14:09:48.136Z,9.89
2022-12-23T14:12:27.661Z,9.80
2022-12-23T14:15:25.019Z,9.71
2022-12-23T14:18:09.916Z,9.76
2022-12-23T14:20:44.361Z,9.68
2022-12-23T14:23:41.283Z,9.79
2022-12-23T14:26:26.648Z,9.68
2022-12-23T14:29:22.702Z,9.89
2022-12-23T14:31:56.235Z,9.66
2022-12-23T14:34:25.780Z,9.77
2022-12-23T14:37:20.139Z,9.72
2022-12-23T14:39:50.677Z,9.90
2022-12-23T14:42:42.096Z,9.82
2022-12-23T14:45:29.678Z,9.68
2022-12-23T14:47:56.284Z,9.92
2022-12-23T14:50:40.985Z,9.92
2022-12-23T14:53:26.787Z,9.89
2022-12-23T14:56:23.425Z,9.70
2022-12-23T14:59:03.915Z,9.61
2022-12-23T15:01:33.267Z,9.51
2022-12-23T15:04:08.116Z,9.51
2022-12-23T15:07:04.159Z,9.61
2022-12-23T15:09:57.196Z,9.54
2022-12-23T15:13:44.911Z,9.68
2022-12-23T15:16:17.548Z,9.57
2022-12-23T15:19:00.301Z,9.55
2022-12-23T15:21:36.502Z,9.57
2022-12-23T15:24:03.191Z,9.52
2022-12-23T15:26:32.606Z,9.51
2022-12-23T15:29:00.524Z,9.52
2022-12-23T15:31:35.786Z,9.52
2022-12-23T15:34:13.258Z,9.50
2022-12-23T15:36:45.570Z,9.52
2022-12-23T15:39:25.000Z,9.53
2022-12-23T15:41:51.557Z,9.60
2022-12-23T15:44:21.536Z,9.52
2022-12-23T15:46:50.359Z,9.56
2022-12-23T15:49:19.192Z,9.59
2022-12-23T15:52:08.003Z,9.59
2022-12-23T15:54:43.871Z,9.60
2022-12-23T15:57:19.217Z,9.55
2022-12-23T15:59:46.077Z,9.82
2022-12-23T16:05:47.377Z,9.72
2022-12-23T16:08:16.022Z,9.74
2022-12-23T16:10:55.305Z,9.79
2022-12-23T16:13:21.892Z,9.72
2022-12-23T16:15:48.513Z,9.70
2022-12-23T16:18:28.407Z,9.72
2022-12-23T16:21:00.915Z,9.75
2022-12-23T16:23:37.162Z,9.77
2022-12-23T16:26:03.982Z,9.77
2022-12-23T16:28:42.085Z,9.73
2022-12-23T16:31:10.849Z,9.82
2022-12-23T16:33:39.652Z,9.93
2022-12-23T16:36:21.539Z,9.94
2022-12-23T16:38:49.895Z,9.96
2022-12-23T16:41:16.743Z,10.00
2022-12-23T16:43:51.218Z,10.09
2022-12-23T16:46:20.931Z,10.14
2022-12-23T16:48:50.423Z,10.17
2022-12-23T16:51:20.140Z,10.20
2022-12-23T16:53:51.632Z,10.27
2022-12-23T16:56:20.613Z,10.20
2022-12-23T16:58:47.567Z,10.27
2022-12-23T17:01:29.837Z,10.40
2022-12-23T17:03:56.607Z,10.41
2022-12-23T17:06:23.964Z,10.42
2022-12-23T17:08:51.117Z,10.44
2022-12-23T17:11:36.944Z,10.46
2022-12-23T17:14:09.073Z,10.53
2022-12-23T17:16:38.572Z,10.51
2022-12-23T17:19:05.713Z,10.55
2022-12-23T17:21:39.102Z,10.62
2022-12-23T17:24:25.577Z,10.67
2022-12-23T17:26:53.127Z,10.71
2022-12-23T17:29:19.925Z,10.68
2022-12-23T17:31:48.350Z,10.75
2022-12-23T17:34:20.294Z,10.71
2022-12-23T17:36:50.465Z,10.78
2022-12-23T17:39:17.800Z,10.84
2022-12-23T17:41:44.402Z,10.80
2022-12-23T17:44:13.799Z,10.81
2022-12-23T17:46:40.677Z,10.84
2022-12-23T17:49:08.434Z,10.71
2022-12-23T17:51:35.165Z,10.95
2022-12-23T17:54:02.140Z,10.91
2022-12-23T17:56:29.216Z,10.89
2022-12-23T17:58:55.755Z,10.89
2022-12-23T18:01:26.701Z,10.99
2022-12-23T18:04:13.556Z,10.99
2022-12-23T18:07:00.388Z,10.94
2022-12-23T18:09:47.813Z,10.89
2022-12-23T18:12:37.946Z,10.96
2022-12-23T18:15:28.683Z,11.10
2022-12-23T18:18:26.045Z,11.06
2022-12-23T18:21:22.476Z,11.16
2022-12-23T18:24:10.080Z,11.17
2022-12-23T18:26:56.914Z,11.10
2022-12-23T18:29:44.448Z,11.05
2022-12-23T18:32:32.911Z,11.14
2022-12-23T18:35:30.063Z,11.17
2022-12-23T18:38:18.462Z,11.18
2022-12-23T18:41:05.308Z,11.26
2022-12-23T18:43:53.319Z,11.32
2022-12-23T18:46:40.337Z,11.27
2022-12-23T18:49:27.302Z,11.37
2022-12-23T18:52:14.205Z,11.34
2022-12-23T18:55:01.041Z,11.43
2022-12-23T18:57:49.012Z,11.43
2022-12-23T19:00:35.879Z,11.38
2022-12-23T19:03:31.245Z,11.33
2022-12-23T19:06:18.134Z,11.42
2022-12-23T19:09:05.860Z,11.24
2022-12-23T19:11:53.944Z,11.41
2022-12-23T19:14:40.829Z,11.35
2022-12-23T19:17:27.776Z,11.32
2022-12-23T19:20:16.973Z,11.28
2022-12-23T19:23:04.101Z,11.50
2022-12-23T19:25:55.279Z,11.42
2022-12-23T19:28:42.672Z,11.42
2022-12-23T19:31:29.997Z,11.30
2022-12-23T19:34:16.899Z,11.27
2022-12-23T19:37:03.723Z,11.33
2022-12-23T19:39:50.605Z,11.25
2022-12-23T19:42:38.796Z,11.34
2022-12-23T19:45:25.665Z,11.40
2022-12-23T19:48:12.471Z,11.38
2022-12-23T19:51:11.285Z,11.34
2022-12-23T19:53:58.118Z,11.32
2022-12-23T19:56:45.594Z,11.48
2022-12-23T19:59:32.409Z,11.45
2022-12-23T20:02:20.001Z,11.30
2022-12-23T20:05:07.303Z,11.32
2022-12-23T20:07:54.144Z,11.35
2022-12-23T20:10:41.021Z,11.38
2022-12-23T20:13:27.876Z,11.52
2022-12-23T20:16:14.756Z,11.35
2022-12-23T20:19:01.774Z,11.47
2022-12-23T20:21:48.671Z,11.39
2022-12-23T20:24:35.941Z,11.25
2022-12-23T20:27:27.797Z,11.46
2022-12-23T20:30:15.225Z,11.55
2022-12-23T20:33:02.138Z,11.41
2022-12-23T20:35:48.939Z,11.31
2022-12-23T20:38:38.657Z,11.37
2022-12-23T20:41:27.736Z,11.31
2022-12-23T20:47:21.503Z,11.27
2022-12-23T20:50:08.606Z,11.36
2022-12-23T20:52:55.470Z,11.36
2022-12-23T20:55:42.360Z,11.29
2022-12-23T20:58:47.537Z,11.33
